Coesse, Indiana
Current Conditions -  °F | °C
As of 7:54 AM on Saturday 25 Oct 2014 (Local Time) from KFWA Reporting Station
Overcast Overcast  
Wind Chill: 54°   Ceiling: 3900
Heat Index: 54°   Visibility: 8mi
Dew Point: 50°   Wind: 8mph
Humidity: 86%   Direction: 230°SW
Pressure: 29.93"   Gusts: NA
Location:  41.1479°N, 85.4772°W
Report Text: KFWA 251154Z 23007KT 8SM BKN039 OVC044 12/10 A2993 RMK AO2 SLP137 60000 T01220100 10122 20089 56001
Loading
Personal Weather Stations






























Interactive Weather Map
Tropical Storm Tracking
New forecast layout! Learn more

10-Day Weather Forecast

Advertisements
Track Severe Weather on mobile